David Carlos — CUWO8 — position and weather

sailwx.info

Track history (hours):
 
Tides and Currents Weather Stations Pressure Air Temp Water Temp Dewpoint Dewpoint Depression Visibility Wind Speed Wind Dir Waves Ship Positions

David Carlos

Last reported at 2017-Sep-25 11:31 UTC. Time now 2017-Sep-25 11:39 UTC.
Position N 37°23' W 025°29'.

Length 20 m.

Type: Fishing. MMSI: 204209960.

Date/timePositionNaut miles runAvg speedWind from/ knotsBaromVisibWave heightAir tempDewpointWater temp
2017-Sep-25 11:31N 37°23' W 025°29'2 4.5
2017-Sep-25 11:00N 37°23' W 025°26'2 4.4
2017-Sep-25 10:30N 37°25' W 025°27'0 0.7
2017-Sep-25 10:00N 37°25' W 025°28'0 0.9
2017-Sep-25 09:30N 37°24' W 025°28'0 0.9
2017-Sep-25 09:01N 37°24' W 025°29'0 0.7
2017-Sep-25 08:31N 37°24' W 025°29'3 6.7
2017-Sep-25 08:01N 37°24' W 025°25'3 5.1
2017-Sep-25 07:31N 37°26' W 025°23'3 5.9
2017-Sep-25 07:01N 37°29' W 025°22'3 6.2
2017-Sep-25 06:31N 37°32' W 025°21'3 6.3
2017-Sep-25 06:01N 37°35' W 025°20'3 6.3
2017-Sep-25 05:31N 37°38' W 025°20'3 6.7
2017-Sep-25 05:00N 37°42' W 025°19'1 2.7
2017-Sep-25 04:30N 37°43' W 025°19'0 0.2
2017-Sep-25 04:00N 37°43' W 025°19'0 0.1
2017-Sep-25 03:30N 37°43' W 025°19'0 0.1
2017-Sep-25 03:00N 37°43' W 025°19'0 0.1
2017-Sep-25 02:30N 37°43' W 025°19'0 0.0
2017-Sep-25 02:00N 37°43' W 025°19'0 0.0
2017-Sep-25 01:31N 37°43' W 025°19'0 0.0
2017-Sep-25 01:00N 37°43' W 025°19'0 0.1
2017-Sep-25 00:30N 37°43' W 025°19'0 0.0
2017-Sep-25 00:01N 37°43' W 025°19'0 0.0
2017-Sep-24 23:30N 37°43' W 025°19'0 0.0
2017-Sep-24 23:00N 37°43' W 025°19'0 0.0
2017-Sep-24 22:30N 37°43' W 025°19'2 3.1
2017-Sep-24 22:00N 37°41' W 025°20'3 6.7
2017-Sep-24 21:30N 37°38' W 025°22'3 7.0
2017-Sep-24 21:00N 37°35' W 025°24'3 6.9
2017-Sep-24 20:30N 37°32' W 025°26'3 6.9
2017-Sep-24 20:00N 37°29' W 025°28'3 6.8
2017-Sep-24 19:31N 37°26' W 025°30'1 2.8
2017-Sep-24 19:00N 37°26' W 025°28'1 2.0
2017-Sep-24 18:30N 37°26' W 025°29'4 7.7
2017-Sep-24 18:00N 37°25' W 025°34'3 6.3
2017-Sep-24 17:30N 37°22' W 025°31'3 5.3
2017-Sep-24 17:01N 37°24' W 025°29'2 3.8
2017-Sep-24 16:30N 37°26' W 025°28'4 8.9
2017-Sep-24 16:01N 37°28' W 025°33'1 2.3
2017-Sep-24 15:31N 37°29' W 025°34'0 0.5
2017-Sep-24 15:01N 37°29' W 025°34'0 0.7
2017-Sep-24 14:30N 37°28' W 025°34'0 0.7
2017-Sep-24 14:00N 37°28' W 025°35'2 4.5
2017-Sep-24 13:30N 37°27' W 025°32'1 2.6
2017-Sep-24 13:00N 37°26' W 025°31'2 3.5
2017-Sep-24 12:31N 37°26' W 025°34'3 6.4
2017-Sep-24 12:00N 37°23' W 025°32'2 4.2
2017-Sep-24 11:30N 37°24' W 025°34'1 1.8
2017-Sep-24 11:01N 37°24' W 025°33'1 2.5
2017-Sep-24 10:30N 37°23' W 025°32'2 4.5
2017-Sep-24 10:01N 37°22' W 025°30'0 0.9
2017-Sep-24 09:30N 37°21' W 025°30'0 0.3
2017-Sep-24 09:00N 37°21' W 025°30'2 3.9
2017-Sep-24 08:30N 37°23' W 025°30'3 6.5
2017-Sep-24 08:01N 37°24' W 025°26'3 5.6
2017-Sep-24 07:30N 37°26' W 025°24'3 6.7
2017-Sep-24 07:00N 37°29' W 025°23'3 6.6
2017-Sep-24 06:31N 37°32' W 025°22'3 6.6
2017-Sep-24 06:00N 37°36' W 025°21'3 6.5
2017-Sep-24 05:30N 37°39' W 025°20'3 6.7
2017-Sep-24 05:00N 37°42' W 025°19'1 1.7
2017-Sep-24 04:31N 37°43' W 025°19'0 0.5
2017-Sep-24 04:00N 37°43' W 025°19'0 0.3
2017-Sep-24 03:30N 37°43' W 025°20'0 0.0
2017-Sep-24 03:00N 37°43' W 025°20'0 0.1
2017-Sep-24 02:30N 37°43' W 025°20'0 0.1
2017-Sep-24 02:00N 37°43' W 025°20'0 0.4
2017-Sep-24 01:30N 37°43' W 025°20'0 0.6
2017-Sep-24 01:00N 37°42' W 025°20'0 0.3
2017-Sep-24 00:30N 37°43' W 025°20'0 0.6
2017-Sep-24 00:00N 37°43' W 025°20'0 0.1
2017-Sep-23 23:31N 37°43' W 025°20'0 0.4
2017-Sep-23 23:00N 37°43' W 025°20'4 7.5
2017-Sep-23 22:31N 37°39' W 025°21'4 7.7
2017-Sep-23 22:00N 37°35' W 025°22'4 7.8
2017-Sep-23 21:30N 37°31' W 025°22'4 8.1
2017-Sep-23 21:00N 37°28' W 025°24'4 8.1
2017-Sep-23 20:30N 37°24' W 025°26'3 6.2
2017-Sep-23 20:00N 37°21' W 025°28'24 0.6
2017-Sep-22 02:01N 37°44' W 025°37'0 0.1
2017-Sep-22 01:31N 37°44' W 025°38'0 0.0
2017-Sep-22 01:01N 37°44' W 025°38'0 0.0
2017-Sep-22 00:31N 37°44' W 025°37'0 0.0
2017-Sep-22 00:01N 37°44' W 025°37'2 3.9
2017-Sep-21 23:31N 37°43' W 025°35'4 7.3
2017-Sep-21 23:01N 37°41' W 025°32'4 7.3
2017-Sep-21 22:30N 37°38' W 025°29'4 7.3
2017-Sep-21 22:01N 37°36' W 025°25'4 7.4
2017-Sep-21 21:31N 37°33' W 025°22'4 7.4
2017-Sep-21 21:00N 37°30' W 025°19'4 7.4
2017-Sep-21 20:31N 37°28' W 025°15'4 7.4
2017-Sep-21 20:00N 37°26' W 025°12'4 7.4
2017-Sep-21 19:31N 37°23' W 025°09'4 7.4
2017-Sep-21 19:00N 37°20' W 025°06'4 7.6
2017-Sep-21 18:30N 37°18' W 025°02'4 7.6
2017-Sep-21 18:00N 37°16' W 024°57'4 7.1
2017-Sep-21 17:30N 37°14' W 024°54'3 6.9
2017-Sep-21 17:00N 37°12' W 024°51'4 7.1
2017-Sep-21 16:30N 37°09' W 024°48'1 2.4
2017-Sep-21 16:01N 37°08' W 024°47'4 7.6
2017-Sep-21 15:31N 37°05' W 024°45'3 6.9
2017-Sep-21 15:01N 37°02' W 024°42'3 6.2
2017-Sep-21 14:30N 37°03' W 024°46'3 5.4
2017-Sep-21 14:00N 37°05' W 024°45'3 6.4
2017-Sep-21 13:31N 37°06' W 024°42'4 8.3
2017-Sep-21 13:00N 37°03' W 024°39'1 1.7
2017-Sep-21 12:30N 37°02' W 024°39'2 3.0
2017-Sep-21 12:01N 37°03' W 024°40'2 3.4
2017-Sep-21 11:31N 37°03' W 024°42'3 6.7
2017-Sep-21 11:00N 37°05' W 024°45'0 0.5
2017-Sep-21 10:30N 37°05' W 024°45'1 2.2
2017-Sep-21 10:00N 37°06' W 024°44'4 7.0
2017-Sep-21 09:30N 37°10' W 024°43'3 5.8
2017-Sep-21 09:00N 37°11' W 024°40'3 5.9
2017-Sep-21 08:30N 37°11' W 024°36'3 6.4
2017-Sep-21 08:01N 37°09' W 024°38'2 3.9
2017-Sep-21 07:30N 37°08' W 024°41'3 6.0
2017-Sep-21 07:00N 37°06' W 024°44'3 5.9
2017-Sep-21 06:30N 37°05' W 024°47'1 2.4
2017-Sep-21 06:00N 37°04' W 024°48'0 0.8
2017-Sep-21 05:30N 37°04' W 024°48'0 0.9
2017-Sep-21 05:00N 37°04' W 024°47'0 0.9
2017-Sep-21 04:30N 37°04' W 024°47'0 0.9
2017-Sep-21 04:00N 37°05' W 024°46'0 0.8
2017-Sep-21 03:30N 37°05' W 024°46'0 0.8
2017-Sep-21 03:00N 37°05' W 024°45'0 0.8
2017-Sep-21 02:30N 37°05' W 024°45'0 0.8
2017-Sep-21 02:00N 37°05' W 024°44'0 0.9
2017-Sep-21 01:30N 37°06' W 024°44'0 0.8
2017-Sep-21 01:00N 37°06' W 024°43'0 0.9
2017-Sep-21 00:30N 37°06' W 024°43'0 0.9
2017-Sep-21 00:00N 37°07' W 024°42'0 1.0
2017-Sep-20 23:30N 37°07' W 024°42'1 1.0
2017-Sep-20 23:01N 37°07' W 024°42'0 1.0
2017-Sep-20 22:31N 37°08' W 024°41'0 0.7
2017-Sep-20 22:00N 37°08' W 024°41'0 0.8
2017-Sep-20 21:30N 37°08' W 024°41'0 0.8
2017-Sep-20 21:00N 37°09' W 024°41'1 1.1
2017-Sep-20 20:30N 37°09' W 024°40'1 1.1
2017-Sep-20 20:01N 37°10' W 024°40'0 0.8
2017-Sep-20 19:30N 37°09' W 024°40'1 2.5
2017-Sep-20 19:00N 37°08' W 024°40'1 2.6
2017-Sep-20 18:30N 37°07' W 024°39'2 3.6
2017-Sep-20 18:00N 37°06' W 024°38'1 2.3
2017-Sep-20 17:30N 37°05' W 024°37'2 3.9
2017-Sep-20 17:00N 37°04' W 024°35'2 4.3
2017-Sep-20 16:30N 37°02' W 024°35'2 4.4
2017-Sep-20 16:01N 37°01' W 024°32'1 1.4
2017-Sep-20 15:30N 37°01' W 024°33'3 6.3
2017-Sep-20 15:00N 37°04' W 024°32'6 5.6
2017-Sep-20 14:01N 37°04' W 024°25'3 6.8
2017-Sep-20 13:30N 37°03' W 024°21'4 7.4
2017-Sep-20 13:00N 37°02' W 024°17'4 7.4
2017-Sep-20 12:30N 37°00' W 024°13'4 7.4
2017-Sep-20 12:00N 36°59' W 024°09'4 7.3
2017-Sep-20 11:30N 36°57' W 024°05'4 7.5
2017-Sep-20 11:00N 36°55' W 024°00'4 7.7
2017-Sep-20 10:30N 36°53' W 023°56'4 7.8
2017-Sep-20 10:00N 36°52' W 023°52'4 7.5
2017-Sep-20 09:30N 36°50' W 023°48'4 7.6
2017-Sep-20 09:00N 36°48' W 023°43'  
Track history (hours):
 
Tides and Currents Weather Stations Pressure Air Temp Water Temp Dewpoint Dewpoint Depression Visibility Wind Speed Wind Dir Waves Ship Positions

David Carlos

Last reported at 2017-Sep-25 11:31 UTC. Time now 2017-Sep-25 11:39 UTC.
Position N 37°23' W 025°29'.

Length 20 m.

Type: Fishing. MMSI: 204209960.

Date/timePositionNaut miles runAvg speedWind from/ knotsBaromVisibWave heightAir tempDewpointWater temp
2017-Sep-25 11:31N 37°23' W 025°29'2 4.5
2017-Sep-25 11:00N 37°23' W 025°26'2 4.4
2017-Sep-25 10:30N 37°25' W 025°27'0 0.7
2017-Sep-25 10:00N 37°25' W 025°28'0 0.9
2017-Sep-25 09:30N 37°24' W 025°28'0 0.9
2017-Sep-25 09:01N 37°24' W 025°29'0 0.7
2017-Sep-25 08:31N 37°24' W 025°29'3 6.7
2017-Sep-25 08:01N 37°24' W 025°25'3 5.1
2017-Sep-25 07:31N 37°26' W 025°23'3 5.9
2017-Sep-25 07:01N 37°29' W 025°22'3 6.2
2017-Sep-25 06:31N 37°32' W 025°21'3 6.3
2017-Sep-25 06:01N 37°35' W 025°20'3 6.3
2017-Sep-25 05:31N 37°38' W 025°20'3 6.7
2017-Sep-25 05:00N 37°42' W 025°19'1 2.7
2017-Sep-25 04:30N 37°43' W 025°19'0 0.2
2017-Sep-25 04:00N 37°43' W 025°19'0 0.1
2017-Sep-25 03:30N 37°43' W 025°19'0 0.1
2017-Sep-25 03:00N 37°43' W 025°19'0 0.1
2017-Sep-25 02:30N 37°43' W 025°19'0 0.0
2017-Sep-25 02:00N 37°43' W 025°19'0 0.0
2017-Sep-25 01:31N 37°43' W 025°19'0 0.0
2017-Sep-25 01:00N 37°43' W 025°19'0 0.1
2017-Sep-25 00:30N 37°43' W 025°19'0 0.0
2017-Sep-25 00:01N 37°43' W 025°19'0 0.0
2017-Sep-24 23:30N 37°43' W 025°19'0 0.0
2017-Sep-24 23:00N 37°43' W 025°19'0 0.0
2017-Sep-24 22:30N 37°43' W 025°19'2 3.1
2017-Sep-24 22:00N 37°41' W 025°20'3 6.7
2017-Sep-24 21:30N 37°38' W 025°22'3 7.0
2017-Sep-24 21:00N 37°35' W 025°24'3 6.9
2017-Sep-24 20:30N 37°32' W 025°26'3 6.9
2017-Sep-24 20:00N 37°29' W 025°28'3 6.8
2017-Sep-24 19:31N 37°26' W 025°30'1 2.8
2017-Sep-24 19:00N 37°26' W 025°28'1 2.0
2017-Sep-24 18:30N 37°26' W 025°29'4 7.7
2017-Sep-24 18:00N 37°25' W 025°34'3 6.3
2017-Sep-24 17:30N 37°22' W 025°31'3 5.3
2017-Sep-24 17:01N 37°24' W 025°29'2 3.8
2017-Sep-24 16:30N 37°26' W 025°28'4 8.9
2017-Sep-24 16:01N 37°28' W 025°33'1 2.3
2017-Sep-24 15:31N 37°29' W 025°34'0 0.5
2017-Sep-24 15:01N 37°29' W 025°34'0 0.7
2017-Sep-24 14:30N 37°28' W 025°34'0 0.7
2017-Sep-24 14:00N 37°28' W 025°35'2 4.5
2017-Sep-24 13:30N 37°27' W 025°32'1 2.6
2017-Sep-24 13:00N 37°26' W 025°31'2 3.5
2017-Sep-24 12:31N 37°26' W 025°34'3 6.4
2017-Sep-24 12:00N 37°23' W 025°32'2 4.2
2017-Sep-24 11:30N 37°24' W 025°34'1 1.8
2017-Sep-24 11:01N 37°24' W 025°33'1 2.5
2017-Sep-24 10:30N 37°23' W 025°32'2 4.5
2017-Sep-24 10:01N 37°22' W 025°30'0 0.9
2017-Sep-24 09:30N 37°21' W 025°30'0 0.3
2017-Sep-24 09:00N 37°21' W 025°30'2 3.9
2017-Sep-24 08:30N 37°23' W 025°30'3 6.5
2017-Sep-24 08:01N 37°24' W 025°26'3 5.6
2017-Sep-24 07:30N 37°26' W 025°24'3 6.7
2017-Sep-24 07:00N 37°29' W 025°23'3 6.6
2017-Sep-24 06:31N 37°32' W 025°22'3 6.6
2017-Sep-24 06:00N 37°36' W 025°21'3 6.5
2017-Sep-24 05:30N 37°39' W 025°20'3 6.7
2017-Sep-24 05:00N 37°42' W 025°19'1 1.7
2017-Sep-24 04:31N 37°43' W 025°19'0 0.5
2017-Sep-24 04:00N 37°43' W 025°19'0 0.3
2017-Sep-24 03:30N 37°43' W 025°20'0 0.0
2017-Sep-24 03:00N 37°43' W 025°20'0 0.1
2017-Sep-24 02:30N 37°43' W 025°20'0 0.1
2017-Sep-24 02:00N 37°43' W 025°20'0 0.4
2017-Sep-24 01:30N 37°43' W 025°20'0 0.6
2017-Sep-24 01:00N 37°42' W 025°20'0 0.3
2017-Sep-24 00:30N 37°43' W 025°20'0 0.6
2017-Sep-24 00:00N 37°43' W 025°20'0 0.1
2017-Sep-23 23:31N 37°43' W 025°20'0 0.4
2017-Sep-23 23:00N 37°43' W 025°20'4 7.5
2017-Sep-23 22:31N 37°39' W 025°21'4 7.7
2017-Sep-23 22:00N 37°35' W 025°22'4 7.8
2017-Sep-23 21:30N 37°31' W 025°22'4 8.1
2017-Sep-23 21:00N 37°28' W 025°24'4 8.1
2017-Sep-23 20:30N 37°24' W 025°26'3 6.2
2017-Sep-23 20:00N 37°21' W 025°28'24 0.6
2017-Sep-22 02:01N 37°44' W 025°37'0 0.1
2017-Sep-22 01:31N 37°44' W 025°38'0 0.0
2017-Sep-22 01:01N 37°44' W 025°38'0 0.0
2017-Sep-22 00:31N 37°44' W 025°37'0 0.0
2017-Sep-22 00:01N 37°44' W 025°37'2 3.9
2017-Sep-21 23:31N 37°43' W 025°35'4 7.3
2017-Sep-21 23:01N 37°41' W 025°32'4 7.3
2017-Sep-21 22:30N 37°38' W 025°29'4 7.3
2017-Sep-21 22:01N 37°36' W 025°25'4 7.4
2017-Sep-21 21:31N 37°33' W 025°22'4 7.4
2017-Sep-21 21:00N 37°30' W 025°19'4 7.4
2017-Sep-21 20:31N 37°28' W 025°15'4 7.4
2017-Sep-21 20:00N 37°26' W 025°12'4 7.4
2017-Sep-21 19:31N 37°23' W 025°09'4 7.4
2017-Sep-21 19:00N 37°20' W 025°06'4 7.6
2017-Sep-21 18:30N 37°18' W 025°02'4 7.6
2017-Sep-21 18:00N 37°16' W 024°57'4 7.1
2017-Sep-21 17:30N 37°14' W 024°54'3 6.9
2017-Sep-21 17:00N 37°12' W 024°51'4 7.1
2017-Sep-21 16:30N 37°09' W 024°48'1 2.4
2017-Sep-21 16:01N 37°08' W 024°47'4 7.6
2017-Sep-21 15:31N 37°05' W 024°45'3 6.9
2017-Sep-21 15:01N 37°02' W 024°42'3 6.2
2017-Sep-21 14:30N 37°03' W 024°46'3 5.4
2017-Sep-21 14:00N 37°05' W 024°45'3 6.4
2017-Sep-21 13:31N 37°06' W 024°42'4 8.3
2017-Sep-21 13:00N 37°03' W 024°39'1 1.7
2017-Sep-21 12:30N 37°02' W 024°39'2 3.0
2017-Sep-21 12:01N 37°03' W 024°40'2 3.4
2017-Sep-21 11:31N 37°03' W 024°42'3 6.7
2017-Sep-21 11:00N 37°05' W 024°45'0 0.5
2017-Sep-21 10:30N 37°05' W 024°45'1 2.2
2017-Sep-21 10:00N 37°06' W 024°44'4 7.0
2017-Sep-21 09:30N 37°10' W 024°43'3 5.8
2017-Sep-21 09:00N 37°11' W 024°40'3 5.9
2017-Sep-21 08:30N 37°11' W 024°36'3 6.4
2017-Sep-21 08:01N 37°09' W 024°38'2 3.9
2017-Sep-21 07:30N 37°08' W 024°41'3 6.0
2017-Sep-21 07:00N 37°06' W 024°44'3 5.9
2017-Sep-21 06:30N 37°05' W 024°47'1 2.4
2017-Sep-21 06:00N 37°04' W 024°48'0 0.8
2017-Sep-21 05:30N 37°04' W 024°48'0 0.9
2017-Sep-21 05:00N 37°04' W 024°47'0 0.9
2017-Sep-21 04:30N 37°04' W 024°47'0 0.9
2017-Sep-21 04:00N 37°05' W 024°46'0 0.8
2017-Sep-21 03:30N 37°05' W 024°46'0 0.8
2017-Sep-21 03:00N 37°05' W 024°45'0 0.8
2017-Sep-21 02:30N 37°05' W 024°45'0 0.8
2017-Sep-21 02:00N 37°05' W 024°44'0 0.9
2017-Sep-21 01:30N 37°06' W 024°44'0 0.8
2017-Sep-21 01:00N 37°06' W 024°43'0 0.9
2017-Sep-21 00:30N 37°06' W 024°43'0 0.9
2017-Sep-21 00:00N 37°07' W 024°42'0 1.0
2017-Sep-20 23:30N 37°07' W 024°42'1 1.0
2017-Sep-20 23:01N 37°07' W 024°42'0 1.0
2017-Sep-20 22:31N 37°08' W 024°41'0 0.7
2017-Sep-20 22:00N 37°08' W 024°41'0 0.8
2017-Sep-20 21:30N 37°08' W 024°41'0 0.8
2017-Sep-20 21:00N 37°09' W 024°41'1 1.1
2017-Sep-20 20:30N 37°09' W 024°40'1 1.1
2017-Sep-20 20:01N 37°10' W 024°40'0 0.8
2017-Sep-20 19:30N 37°09' W 024°40'1 2.5
2017-Sep-20 19:00N 37°08' W 024°40'1 2.6
2017-Sep-20 18:30N 37°07' W 024°39'2 3.6
2017-Sep-20 18:00N 37°06' W 024°38'1 2.3
2017-Sep-20 17:30N 37°05' W 024°37'2 3.9
2017-Sep-20 17:00N 37°04' W 024°35'2 4.3
2017-Sep-20 16:30N 37°02' W 024°35'2 4.4
2017-Sep-20 16:01N 37°01' W 024°32'1 1.4
2017-Sep-20 15:30N 37°01' W 024°33'3 6.3
2017-Sep-20 15:00N 37°04' W 024°32'6 5.6
2017-Sep-20 14:01N 37°04' W 024°25'3 6.8
2017-Sep-20 13:30N 37°03' W 024°21'4 7.4
2017-Sep-20 13:00N 37°02' W 024°17'4 7.4
2017-Sep-20 12:30N 37°00' W 024°13'4 7.4
2017-Sep-20 12:00N 36°59' W 024°09'4 7.3
2017-Sep-20 11:30N 36°57' W 024°05'4 7.5
2017-Sep-20 11:00N 36°55' W 024°00'4 7.7
2017-Sep-20 10:30N 36°53' W 023°56'4 7.8
2017-Sep-20 10:00N 36°52' W 023°52'4 7.5
2017-Sep-20 09:30N 36°50' W 023°48'4 7.6
2017-Sep-20 09:00N 36°48' W 023°43'  

Dump ship's entire track history